Time;durP1;ratioP1;P1;durP2;ratioP2;P2;SDS_P1;SDS_P2;PMS_P1;PMS_P2;Temp;Humidity;BMP_temperature;BMP_pressure;BME280_temperature;BME280_humidity;BME280_pressure;Samples;Min_cycle;Max_cycle;Signal;HPM_P1;HPM_P2
2023/10/24 00:01:24;;;;;;;;;;;12.60;99.90;;;;;;5106714;28;19915;-70
2023/10/24 00:03:50;;;;;;;;;;;12.50;99.90;;;;;;5108114;27;20372;-70
2023/10/24 00:06:15;;;;;;;;;;;12.50;99.90;;;;;;5116367;27;19950;-70
2023/10/24 00:08:41;;;;;;;;;;;12.50;99.90;;;;;;5107736;28;19912;-70
2023/10/24 00:11:07;;;;;;;;;;;12.50;99.90;;;;;;5109222;28;20287;-70
2023/10/24 00:13:32;;;;;;;;;;;12.60;99.90;;;;;;5107411;28;19908;-70
2023/10/24 00:15:58;;;;;;;;;;;12.60;99.90;;;;;;5107868;28;19912;-70
2023/10/24 00:18:24;;;;;;;;;;;12.50;99.90;;;;;;5108290;28;19907;-70
2023/10/24 00:20:49;;;;;;;;;;;12.60;99.90;;;;;;5108376;28;19919;-70
2023/10/24 00:23:15;;;;;;;;;;;12.50;99.90;;;;;;5108310;28;19908;-70
2023/10/24 00:25:40;;;;;;;;;;;12.50;99.90;;;;;;5115457;27;19968;-70
2023/10/24 00:28:06;;;;;;;;;;;12.60;99.90;;;;;;5099733;28;19911;-70
2023/10/24 00:30:31;;;;;;;;;;;12.50;99.90;;;;;;5115456;28;19915;-70
2023/10/24 00:32:57;;;;;;;;;;;12.50;99.90;;;;;;5111648;28;20244;-70
2023/10/24 00:35:22;;;;;;;;;;;12.50;99.90;;;;;;5103964;28;19961;-70
2023/10/24 00:37:48;;;;;;;;;;;12.60;99.90;;;;;;5101583;28;19939;-70
2023/10/24 00:40:13;;;;;;;;;;;12.50;99.90;;;;;;5108305;28;19923;-70
2023/10/24 00:42:39;;;;;;;;;;;12.60;99.90;;;;;;5108041;28;20007;-70
2023/10/24 00:45:06;;;;;;;;;;;12.60;99.90;;;;;;5111520;28;19919;-70
2023/10/24 00:47:31;;;;;;;;;;;12.50;99.90;;;;;;5116638;27;19911;-70
2023/10/24 00:49:57;;;;;;;;;;;12.50;99.90;;;;;;5112064;28;19912;-71
2023/10/24 00:52:23;;;;;;;;;;;12.60;99.90;;;;;;5111624;28;19999;-71
2023/10/24 00:54:48;;;;;;;;;;;12.60;99.90;;;;;;5104214;27;20018;-71
2023/10/24 00:57:14;;;;;;;;;;;12.60;99.90;;;;;;5116236;27;19911;-70
2023/10/24 00:59:40;;;;;;;;;;;12.60;99.90;;;;;;5115067;27;20242;-70
2023/10/24 01:02:06;;;;;;;;;;;12.60;99.90;;;;;;5111310;28;19911;-70
2023/10/24 01:04:32;;;;;;;;;;;12.60;99.90;;;;;;5111818;27;19937;-70
2023/10/24 01:06:58;;;;;;;;;;;12.60;99.90;;;;;;5111507;27;19953;-70
2023/10/24 01:09:23;;;;;;;;;;;12.60;99.90;;;;;;5116809;27;19907;-70
2023/10/24 01:11:49;;;;;;;;;;;12.60;99.90;;;;;;5112400;27;19915;-70
2023/10/24 01:14:15;;;;;;;;;;;12.60;99.90;;;;;;5116549;27;19951;-70
2023/10/24 01:16:41;;;;;;;;;;;12.60;99.90;;;;;;5111280;27;19961;-70
2023/10/24 01:19:06;;;;;;;;;;;12.60;99.90;;;;;;5111381;28;19919;-70
2023/10/24 01:21:32;;;;;;;;;;;12.60;99.90;;;;;;5111794;28;19916;-70
2023/10/24 01:23:57;;;;;;;;;;;12.60;99.90;;;;;;5111587;28;19907;-70
2023/10/24 01:26:24;;;;;;;;;;;12.60;99.90;;;;;;5111159;28;20294;-70
2023/10/24 01:28:50;;;;;;;;;;;12.60;99.90;;;;;;5109233;28;19979;-70
2023/10/24 01:31:15;;;;;;;;;;;12.60;99.90;;;;;;5111401;28;20443;-70
2023/10/24 01:33:41;;;;;;;;;;;12.60;99.90;;;;;;5118937;27;20017;-70
2023/10/24 01:36:06;;;;;;;;;;;12.60;99.90;;;;;;5110838;27;19911;-70
2023/10/24 01:38:32;;;;;;;;;;;12.60;99.90;;;;;;5110714;28;19998;-70
2023/10/24 01:40:57;;;;;;;;;;;12.70;99.90;;;;;;5109093;28;19912;-70
2023/10/24 01:43:23;;;;;;;;;;;12.70;99.90;;;;;;5110833;28;19915;-70
2023/10/24 01:45:48;;;;;;;;;;;12.60;99.90;;;;;;5117387;27;19908;-70
2023/10/24 01:48:14;;;;;;;;;;;12.60;99.90;;;;;;5110760;28;20424;-70
2023/10/24 01:50:39;;;;;;;;;;;12.70;99.90;;;;;;5110644;28;19911;-70
2023/10/24 01:53:05;;;;;;;;;;;12.60;99.90;;;;;;5110304;27;20237;-70
2023/10/24 01:55:30;;;;;;;;;;;12.70;99.90;;;;;;5110625;28;20371;-70
2023/10/24 01:57:56;;;;;;;;;;;12.70;99.90;;;;;;5117815;27;19915;-70
2023/10/24 02:00:21;;;;;;;;;;;12.60;99.90;;;;;;5115908;27;19920;-70
2023/10/24 02:02:47;;;;;;;;;;;12.70;99.90;;;;;;5113875;27;19919;-70
2023/10/24 02:05:12;;;;;;;;;;;12.70;99.90;;;;;;5111412;28;19919;-70
2023/10/24 02:07:38;;;;;;;;;;;12.70;99.90;;;;;;5110360;28;19958;-70
2023/10/24 02:10:04;;;;;;;;;;;12.70;99.90;;;;;;5110413;28;19912;-70
2023/10/24 02:12:30;;;;;;;;;;;12.70;99.90;;;;;;5108893;28;20640;-70
2023/10/24 02:14:55;;;;;;;;;;;12.70;99.90;;;;;;5109928;27;19915;-70
2023/10/24 02:17:21;;;;;;;;;;;12.70;99.90;;;;;;5109782;27;19915;-70
2023/10/24 02:19:46;;;;;;;;;;;12.70;99.90;;;;;;5109012;27;19988;-70
2023/10/24 02:22:12;;;;;;;;;;;12.70;99.90;;;;;;5116910;27;19908;-70
2023/10/24 02:24:37;;;;;;;;;;;12.70;99.90;;;;;;5118353;27;19912;-70
2023/10/24 02:27:03;;;;;;;;;;;12.70;99.90;;;;;;5109393;28;20276;-70
2023/10/24 02:29:31;;;;;;;;;;;12.70;99.90;;;;;;5109285;28;19927;-70
2023/10/24 02:31:56;;;;;;;;;;;12.70;99.90;;;;;;5117707;27;19999;-70
2023/10/24 02:34:22;;;;;;;;;;;12.70;99.90;;;;;;5109871;28;19999;-70
2023/10/24 02:36:47;;;;;;;;;;;12.70;99.90;;;;;;5109195;28;20256;-70
2023/10/24 02:39:13;;;;;;;;;;;12.70;99.90;;;;;;5109167;28;19977;-70
2023/10/24 02:41:38;;;;;;;;;;;12.70;99.90;;;;;;5108247;28;20622;-70
2023/10/24 02:44:04;;;;;;;;;;;12.70;99.90;;;;;;5109170;28;19947;-70
2023/10/24 02:46:29;;;;;;;;;;;12.70;99.90;;;;;;5109450;28;19918;-70
2023/10/24 02:48:55;;;;;;;;;;;12.70;99.90;;;;;;5108910;28;19915;-70
2023/10/24 02:51:20;;;;;;;;;;;12.70;99.90;;;;;;5109079;28;20287;-70
2023/10/24 02:53:46;;;;;;;;;;;12.70;99.90;;;;;;5100257;27;19912;-70
2023/10/24 02:56:11;;;;;;;;;;;12.70;99.90;;;;;;5117530;27;19912;-70
2023/10/24 02:58:37;;;;;;;;;;;12.70;99.90;;;;;;5108920;27;20280;-70
2023/10/24 03:01:06;;;;;;;;;;;12.70;99.90;;;;;;5117543;27;19920;-70
2023/10/24 03:03:32;;;;;;;;;;;12.70;99.90;;;;;;5109074;28;19994;-70
2023/10/24 03:05:57;;;;;;;;;;;12.70;99.90;;;;;;5108804;28;20014;-70
2023/10/24 03:08:23;;;;;;;;;;;12.70;99.90;;;;;;5108715;28;19919;-70
2023/10/24 03:10:48;;;;;;;;;;;12.70;99.90;;;;;;5109469;28;19911;-70
2023/10/24 03:13:14;;;;;;;;;;;12.70;99.90;;;;;;5108999;28;19915;-70
2023/10/24 03:15:41;;;;;;;;;;;12.70;99.90;;;;;;5117002;27;19919;-70
2023/10/24 03:18:06;;;;;;;;;;;12.70;99.90;;;;;;5108485;27;20701;-70
2023/10/24 03:20:32;;;;;;;;;;;12.70;99.90;;;;;;5115810;27;19923;-70
2023/10/24 03:22:57;;;;;;;;;;;12.70;99.90;;;;;;5108107;28;19912;-70
2023/10/24 03:25:24;;;;;;;;;;;12.70;99.90;;;;;;5106505;28;19919;-70
2023/10/24 03:27:53;;;;;;;;;;;12.70;99.90;;;;;;5113787;27;20365;-70
2023/10/24 03:30:19;;;;;;;;;;;12.70;99.90;;;;;;5116833;27;19908;-70
2023/10/24 03:32:45;;;;;;;;;;;12.70;99.90;;;;;;5111671;27;20264;-70
2023/10/24 03:35:10;;;;;;;;;;;12.70;99.90;;;;;;5112870;27;19919;-70
2023/10/24 03:37:36;;;;;;;;;;;12.80;99.90;;;;;;5115627;27;19919;-70
2023/10/24 03:40:02;;;;;;;;;;;12.70;99.90;;;;;;5117193;27;20010;-70
2023/10/24 03:42:29;;;;;;;;;;;12.70;99.90;;;;;;5108235;28;19915;-70
2023/10/24 03:44:54;;;;;;;;;;;12.70;99.90;;;;;;5107930;28;19957;-70
2023/10/24 03:47:20;;;;;;;;;;;12.70;99.90;;;;;;5108165;28;19986;-70
2023/10/24 03:49:45;;;;;;;;;;;12.70;99.90;;;;;;5108259;28;20019;-70
2023/10/24 03:52:11;;;;;;;;;;;12.70;99.90;;;;;;5108411;28;19911;-70
2023/10/24 03:54:36;;;;;;;;;;;12.70;99.90;;;;;;5108293;28;19916;-70
2023/10/24 03:57:02;;;;;;;;;;;12.70;99.90;;;;;;5106604;28;20280;-70
2023/10/24 03:59:28;;;;;;;;;;;12.70;99.90;;;;;;5108190;28;19933;-70
2023/10/24 04:01:53;;;;;;;;;;;12.80;99.90;;;;;;5107999;28;20023;-70
2023/10/24 04:04:19;;;;;;;;;;;12.70;99.90;;;;;;5119888;27;19997;-70
2023/10/24 04:06:44;;;;;;;;;;;12.70;99.90;;;;;;5115098;28;19919;-70
2023/10/24 04:09:10;;;;;;;;;;;12.70;99.90;;;;;;5110224;27;19912;-70
2023/10/24 04:11:35;;;;;;;;;;;12.70;99.90;;;;;;5120351;27;19915;-70
2023/10/24 04:14:02;;;;;;;;;;;12.70;99.90;;;;;;5109212;27;20012;-70
2023/10/24 04:16:27;;;;;;;;;;;12.70;99.90;;;;;;5108324;28;20002;-70
2023/10/24 04:18:53;;;;;;;;;;;12.70;99.90;;;;;;5108269;28;20329;-70
2023/10/24 04:21:18;;;;;;;;;;;12.70;99.90;;;;;;5118627;27;19944;-70
2023/10/24 04:23:44;;;;;;;;;;;12.70;99.90;;;;;;5119246;27;20050;-70
2023/10/24 04:26:10;;;;;;;;;;;12.70;99.90;;;;;;5107591;27;19918;-71
2023/10/24 04:28:35;;;;;;;;;;;12.70;99.90;;;;;;5116937;27;19959;-71
2023/10/24 04:31:01;;;;;;;;;;;12.70;99.90;;;;;;5112154;28;19923;-71
2023/10/24 04:33:26;;;;;;;;;;;12.70;99.90;;;;;;5107314;28;19911;-71
2023/10/24 04:35:52;;;;;;;;;;;12.70;99.90;;;;;;5110744;28;19908;-70
2023/10/24 04:38:18;;;;;;;;;;;12.70;99.90;;;;;;5112229;28;20379;-70
2023/10/24 04:40:43;;;;;;;;;;;12.70;99.90;;;;;;5120223;27;20413;-70
2023/10/24 04:43:09;;;;;;;;;;;12.70;99.90;;;;;;5111941;27;20015;-70
2023/10/24 04:45:35;;;;;;;;;;;12.70;99.90;;;;;;5110802;28;20391;-70
2023/10/24 04:48:02;;;;;;;;;;;12.70;99.90;;;;;;5119925;27;19914;-70
2023/10/24 04:50:27;;;;;;;;;;;12.70;99.90;;;;;;5110233;28;19958;-70
2023/10/24 04:52:53;;;;;;;;;;;12.70;99.90;;;;;;5123601;27;19939;-70
2023/10/24 04:55:19;;;;;;;;;;;12.70;99.90;;;;;;5111498;28;20003;-70
2023/10/24 04:57:44;;;;;;;;;;;12.60;99.90;;;;;;5109993;28;20352;-70
2023/10/24 05:00:16;;;;;;;;;;;12.70;99.90;;;;;;5103067;28;20455;-70
2023/10/24 05:02:43;;;;;;;;;;;12.70;99.90;;;;;;5111304;28;19915;-70
2023/10/24 05:05:08;;;;;;;;;;;12.60;99.90;;;;;;5112979;27;19907;-70
2023/10/24 05:07:34;;;;;;;;;;;12.60;99.90;;;;;;5114579;27;19923;-70
2023/10/24 05:10:00;;;;;;;;;;;12.60;99.90;;;;;;5119473;27;19930;-70
2023/10/24 05:12:25;;;;;;;;;;;12.70;99.90;;;;;;5111275;28;19908;-70
2023/10/24 05:14:51;;;;;;;;;;;12.60;99.90;;;;;;5118810;27;20005;-70
2023/10/24 05:17:16;;;;;;;;;;;12.60;99.90;;;;;;5126944;27;20325;-70
2023/10/24 05:19:42;;;;;;;;;;;12.60;99.90;;;;;;5111005;28;19918;-70
2023/10/24 05:22:08;;;;;;;;;;;12.60;99.90;;;;;;5110678;27;19911;-70
2023/10/24 05:24:34;;;;;;;;;;;12.60;99.90;;;;;;5111127;28;20543;-70
2023/10/24 05:26:59;;;;;;;;;;;12.60;99.90;;;;;;5110728;28;19919;-70
2023/10/24 05:29:25;;;;;;;;;;;12.60;99.90;;;;;;5110744;27;20323;-70
2023/10/24 05:31:50;;;;;;;;;;;12.60;99.90;;;;;;5109936;28;19915;-70
2023/10/24 05:34:16;;;;;;;;;;;12.60;99.90;;;;;;5110420;28;19925;-70
2023/10/24 05:36:41;;;;;;;;;;;12.60;99.90;;;;;;5117747;27;19914;-70
2023/10/24 05:39:07;;;;;;;;;;;12.60;99.90;;;;;;5109973;28;20534;-70
2023/10/24 05:41:32;;;;;;;;;;;12.60;99.90;;;;;;5117240;27;20284;-70
2023/10/24 05:43:58;;;;;;;;;;;12.60;99.90;;;;;;5111933;27;19918;-70
2023/10/24 05:46:24;;;;;;;;;;;12.60;99.90;;;;;;5110500;28;19907;-70
2023/10/24 05:48:49;;;;;;;;;;;12.60;99.90;;;;;;5109801;27;20361;-70
2023/10/24 05:51:22;;;;;;;;;;;12.60;99.90;;;;;;5109994;28;20000;-70
2023/10/24 05:53:49;;;;;;;;;;;12.50;99.90;;;;;;5107000;28;19923;-70
2023/10/24 05:56:15;;;;;;;;;;;12.60;99.90;;;;;;5109869;28;20617;-70
2023/10/24 05:58:40;;;;;;;;;;;12.50;99.90;;;;;;5109442;28;19916;-70
2023/10/24 06:01:07;;;;;;;;;;;12.50;99.90;;;;;;5118433;27;20002;-70
2023/10/24 06:03:33;;;;;;;;;;;12.50;99.90;;;;;;5109881;27;20003;-70
2023/10/24 06:06:00;;;;;;;;;;;12.50;99.90;;;;;;5114573;27;20392;-70
2023/10/24 06:08:25;;;;;;;;;;;12.50;99.90;;;;;;5118248;27;19930;-70
2023/10/24 06:10:57;;;;;;;;;;;12.50;99.90;;;;;;5110431;27;19970;-70
2023/10/24 06:13:23;;;;;;;;;;;12.50;99.90;;;;;;5115270;27;19908;-70
2023/10/24 06:15:48;;;;;;;;;;;12.50;99.90;;;;;;5109620;28;19997;-70
2023/10/24 06:18:14;;;;;;;;;;;12.50;99.90;;;;;;5112293;27;20442;-70
2023/10/24 06:20:40;;;;;;;;;;;12.50;99.90;;;;;;5114168;27;19915;-70
2023/10/24 06:23:06;;;;;;;;;;;12.50;99.90;;;;;;5109773;27;19908;-70
2023/10/24 06:25:41;;;;;;;;;;;12.50;99.90;;;;;;5114804;27;19919;-70
2023/10/24 06:28:07;;;;;;;;;;;12.50;99.90;;;;;;5110091;27;19961;-70
2023/10/24 06:30:33;;;;;;;;;;;12.50;99.90;;;;;;5109259;28;19908;-70
2023/10/24 06:32:58;;;;;;;;;;;12.50;99.90;;;;;;5107935;28;19915;-70
2023/10/24 06:35:24;;;;;;;;;;;12.50;99.90;;;;;;5114597;27;19912;-70
2023/10/24 06:37:49;;;;;;;;;;;12.40;99.90;;;;;;5110799;27;19912;-70
2023/10/24 06:40:15;;;;;;;;;;;12.50;99.90;;;;;;5118034;27;19923;-70
2023/10/24 06:42:40;;;;;;;;;;;12.40;99.90;;;;;;5117054;27;19907;-70
2023/10/24 06:45:06;;;;;;;;;;;12.40;99.90;;;;;;5118225;27;20027;-70
2023/10/24 06:47:32;;;;;;;;;;;12.50;99.90;;;;;;5107204;28;19911;-70
2023/10/24 06:49:58;;;;;;;;;;;12.40;99.90;;;;;;5117140;27;19995;-70
2023/10/24 06:52:23;;;;;;;;;;;12.40;99.90;;;;;;5109310;28;19912;-70
2023/10/24 06:54:49;;;;;;;;;;;12.40;99.90;;;;;;5100915;28;20709;-70
2023/10/24 06:57:14;;;;;;;;;;;12.40;99.90;;;;;;5109053;28;19991;-70
2023/10/24 06:59:40;;;;;;;;;;;12.40;99.90;;;;;;5118211;27;19946;-70
2023/10/24 07:02:05;;;;;;;;;;;12.50;99.90;;;;;;5108993;27;20609;-70
2023/10/24 07:04:31;;;;;;;;;;;12.40;99.90;;;;;;5112136;27;19911;-70
2023/10/24 07:06:56;;;;;;;;;;;12.50;99.90;;;;;;5106623;28;20241;-70
2023/10/24 07:09:22;;;;;;;;;;;12.40;99.90;;;;;;5108322;28;19911;-70
2023/10/24 07:11:47;;;;;;;;;;;12.40;99.90;;;;;;5117101;27;19908;-70
2023/10/24 07:14:13;;;;;;;;;;;12.50;99.90;;;;;;5107122;28;19932;-70
2023/10/24 07:16:38;;;;;;;;;;;12.40;99.90;;;;;;5108623;27;19919;-70
2023/10/24 07:19:04;;;;;;;;;;;12.50;99.90;;;;;;5108238;28;19927;-70
2023/10/24 07:21:29;;;;;;;;;;;12.50;99.90;;;;;;5108002;28;19920;-71
2023/10/24 07:23:56;;;;;;;;;;;12.50;99.90;;;;;;5111327;27;19994;-71
2023/10/24 07:26:21;;;;;;;;;;;12.50;99.90;;;;;;5109019;27;19912;-70
2023/10/24 07:28:47;;;;;;;;;;;12.50;99.90;;;;;;5107967;27;19927;-70
2023/10/24 07:31:13;;;;;;;;;;;12.50;99.90;;;;;;5107873;28;20325;-70
2023/10/24 07:33:38;;;;;;;;;;;12.50;99.90;;;;;;5115419;27;19908;-70
2023/10/24 07:36:07;;;;;;;;;;;12.50;99.90;;;;;;5108177;28;20022;-70
2023/10/24 07:38:33;;;;;;;;;;;12.50;99.90;;;;;;5107707;28;19916;-70
2023/10/24 07:40:59;;;;;;;;;;;12.50;99.90;;;;;;5116230;27;19918;-70
2023/10/24 07:43:24;;;;;;;;;;;12.50;99.90;;;;;;5108057;28;19912;-70
2023/10/24 07:45:50;;;;;;;;;;;12.50;99.90;;;;;;5116235;27;19912;-70
2023/10/24 07:48:16;;;;;;;;;;;12.60;99.90;;;;;;5106603;28;19922;-71
2023/10/24 07:50:51;;;;;;;;;;;12.50;99.90;;;;;;5106823;28;20249;-71
2023/10/24 07:53:18;;;;;;;;;;;12.50;99.90;;;;;;5096500;28;19919;-70
2023/10/24 07:55:43;;;;;;;;;;;12.50;99.90;;;;;;5111517;28;19911;-70
2023/10/24 07:58:09;;;;;;;;;;;12.50;99.90;;;;;;5108074;27;19912;-70
2023/10/24 08:00:34;;;;;;;;;;;12.60;99.90;;;;;;5109371;27;20291;-70
2023/10/24 08:03:00;;;;;;;;;;;12.50;99.90;;;;;;5101948;28;19918;-71
2023/10/24 08:05:25;;;;;;;;;;;12.60;99.90;;;;;;5107944;28;19955;-70
2023/10/24 08:07:51;;;;;;;;;;;12.60;99.90;;;;;;5107573;28;19908;-70
2023/10/24 08:10:17;;;;;;;;;;;12.60;99.90;;;;;;5106702;28;20041;-70
2023/10/24 08:12:42;;;;;;;;;;;12.60;99.90;;;;;;5108002;28;19908;-70
2023/10/24 08:15:08;;;;;;;;;;;12.60;99.90;;;;;;5114520;27;19916;-70
2023/10/24 08:17:34;;;;;;;;;;;12.60;99.90;;;;;;5107725;28;20250;-70
2023/10/24 08:19:59;;;;;;;;;;;12.60;99.90;;;;;;5107872;28;20479;-70
2023/10/24 08:22:25;;;;;;;;;;;12.60;99.90;;;;;;5107925;28;19916;-70
2023/10/24 08:24:50;;;;;;;;;;;12.60;99.90;;;;;;5107745;28;20061;-70
2023/10/24 08:27:16;;;;;;;;;;;12.60;99.90;;;;;;5107669;28;19908;-70
2023/10/24 08:29:41;;;;;;;;;;;12.70;99.90;;;;;;5116268;28;19919;-70
2023/10/24 08:32:07;;;;;;;;;;;12.60;99.90;;;;;;5107337;28;19919;-70
2023/10/24 08:34:36;;;;;;;;;;;12.60;99.90;;;;;;5106415;28;20002;-70
2023/10/24 08:37:02;;;;;;;;;;;12.60;99.90;;;;;;5107364;28;20276;-70
2023/10/24 08:39:28;;;;;;;;;;;12.70;99.90;;;;;;5107583;28;19930;-70
2023/10/24 08:41:56;;;;;;;;;;;12.70;99.90;;;;;;5105903;28;20352;-70
2023/10/24 08:44:23;;;;;;;;;;;12.70;99.90;;;;;;5106144;28;19915;-70
2023/10/24 08:46:49;;;;;;;;;;;12.70;99.90;;;;;;5107370;28;19912;-70
2023/10/24 08:49:16;;;;;;;;;;;12.70;99.90;;;;;;5111417;27;20002;-70
2023/10/24 08:51:41;;;;;;;;;;;12.70;99.90;;;;;;5119809;27;20521;-70
2023/10/24 08:54:07;;;;;;;;;;;12.70;99.90;;;;;;5108362;27;19911;-70
2023/10/24 08:56:34;;;;;;;;;;;12.70;99.90;;;;;;5108313;28;19969;-70
2023/10/24 08:59:00;;;;;;;;;;;12.70;99.90;;;;;;5107829;28;19916;-70
2023/10/24 09:01:26;;;;;;;;;;;12.70;99.90;;;;;;5106731;28;19918;-70
2023/10/24 09:03:51;;;;;;;;;;;12.70;99.90;;;;;;5107817;28;19916;-70
2023/10/24 09:06:18;;;;;;;;;;;12.70;99.90;;;;;;5110517;28;19935;-70
2023/10/24 09:08:43;;;;;;;;;;;12.80;99.90;;;;;;5109536;27;20019;-70
2023/10/24 09:11:09;;;;;;;;;;;12.80;99.90;;;;;;5111368;28;19915;-70
2023/10/24 09:13:34;;;;;;;;;;;12.80;99.90;;;;;;5119751;27;19934;-70
2023/10/24 09:16:10;;;;;;;;;;;12.80;99.90;;;;;;5111078;27;19965;-70
2023/10/24 09:18:36;;;;;;;;;;;12.80;99.90;;;;;;5111070;28;19912;-70
2023/10/24 09:21:02;;;;;;;;;;;12.90;99.90;;;;;;5119707;27;19965;-70
2023/10/24 09:23:28;;;;;;;;;;;12.90;99.90;;;;;;5111427;28;20217;-70
2023/10/24 09:25:53;;;;;;;;;;;12.90;99.90;;;;;;5110769;28;19918;-70
2023/10/24 09:28:21;;;;;;;;;;;12.90;99.90;;;;;;5110762;28;19919;-70
2023/10/24 09:30:47;;;;;;;;;;;13.00;99.90;;;;;;5108103;28;20290;-70
2023/10/24 09:33:12;;;;;;;;;;;13.00;99.90;;;;;;5110981;27;19912;-70
2023/10/24 09:35:38;;;;;;;;;;;13.00;99.80;;;;;;5111540;28;20395;-70
2023/10/24 09:38:07;;;;;;;;;;;13.00;99.80;;;;;;5114447;27;20044;-70
2023/10/24 09:40:37;;;;;;;;;;;13.00;99.90;;;;;;5115710;27;20011;-70
2023/10/24 09:43:04;;;;;;;;;;;13.10;99.90;;;;;;5112199;27;19908;-70
2023/10/24 09:45:31;;;;;;;;;;;13.10;99.90;;;;;;5109218;28;19916;-70
2023/10/24 09:47:58;;;;;;;;;;;13.10;99.90;;;;;;5110100;28;20269;-70
2023/10/24 09:50:24;;;;;;;;;;;13.10;99.90;;;;;;5110582;28;20368;-70
2023/10/24 09:52:50;;;;;;;;;;;13.10;99.90;;;;;;5109122;28;19912;-70
2023/10/24 09:55:17;;;;;;;;;;;13.20;99.80;;;;;;5102274;28;19919;-70
2023/10/24 09:57:46;;;;;;;;;;;13.20;99.80;;;;;;5108808;28;19916;-70
2023/10/24 10:00:12;;;;;;;;;;;13.20;99.70;;;;;;5117105;27;19920;-70
2023/10/24 10:02:40;;;;;;;;;;;13.20;99.60;;;;;;5109475;27;19958;-70
2023/10/24 10:05:06;;;;;;;;;;;13.30;99.90;;;;;;5109425;27;20018;-70
2023/10/24 10:07:32;;;;;;;;;;;13.30;99.70;;;;;;5115735;27;20424;-70
2023/10/24 10:09:58;;;;;;;;;;;13.40;99.70;;;;;;5110082;27;20407;-70
2023/10/24 10:12:24;;;;;;;;;;;13.30;99.50;;;;;;5110032;28;19908;-70
2023/10/24 10:15:00;;;;;;;;;;;13.40;99.50;;;;;;5109864;28;20066;-70
2023/10/24 10:17:30;;;;;;;;;;;13.50;99.50;;;;;;5109658;28;19912;-70
2023/10/24 10:20:10;;;;;;;;;;;13.50;99.60;;;;;;5118362;27;19912;-70
2023/10/24 10:22:54;;;;;;;;;;;13.50;99.50;;;;;;5115429;27;19912;-70
2023/10/24 10:25:39;;;;;;;;;;;13.60;99.50;;;;;;5101471;28;20361;-70
2023/10/24 10:28:15;;;;;;;;;;;13.60;99.20;;;;;;5108041;28;19912;-70
2023/10/24 10:30:47;;;;;;;;;;;13.70;99.20;;;;;;5107555;28;19955;-70
2023/10/24 10:33:16;;;;;;;;;;;13.70;99.10;;;;;;5098669;28;19923;-70
2023/10/24 10:35:45;;;;;;;;;;;13.80;98.90;;;;;;5108672;28;19915;-71
2023/10/24 10:38:11;;;;;;;;;;;13.90;98.90;;;;;;5116529;27;19915;-70
2023/10/24 10:40:36;;;;;;;;;;;14.00;98.60;;;;;;5108571;28;19926;-70
2023/10/24 10:43:02;;;;;;;;;;;14.00;98.60;;;;;;5109700;27;19976;-70
2023/10/24 10:45:28;;;;;;;;;;;14.10;98.60;;;;;;5123490;27;20512;-70
2023/10/24 10:48:02;;;;;;;;;;;14.10;98.70;;;;;;5107726;28;19908;-70
2023/10/24 10:50:28;;;;;;;;;;;14.10;98.50;;;;;;5108420;28;19911;-70
2023/10/24 10:52:54;;;;;;;;;;;14.20;98.60;;;;;;5107887;28;19916;-70
2023/10/24 10:55:38;;;;;;;;;;;14.20;98.60;;;;;;5108161;28;19912;-70
2023/10/24 10:58:14;;;;;;;;;;;14.20;98.40;;;;;;5099538;28;19919;-70
2023/10/24 11:01:03;;;;;;;;;;;14.20;98.50;;;;;;5108050;28;20601;-70
2023/10/24 11:03:28;;;;;;;;;;;14.30;98.60;;;;;;5093554;28;20323;-70
2023/10/24 11:05:54;;;;;;;;;;;14.30;98.50;;;;;;5114028;27;19912;-70
2023/10/24 11:08:22;;;;;;;;;;;14.30;98.60;;;;;;5103952;28;19948;-70
2023/10/24 11:11:01;;;;;;;;;;;14.40;98.60;;;;;;5104022;28;19912;-70
2023/10/24 11:13:47;;;;;;;;;;;14.40;98.50;;;;;;5113074;27;19925;-70
2023/10/24 11:16:13;;;;;;;;;;;14.40;98.40;;;;;;5108187;27;20001;-70
2023/10/24 11:18:40;;;;;;;;;;;14.40;98.50;;;;;;5107911;28;19962;-70
2023/10/24 11:21:07;;;;;;;;;;;14.40;98.50;;;;;;5116099;27;19941;-70
2023/10/24 11:23:33;;;;;;;;;;;14.40;98.40;;;;;;5107826;28;19998;-71
2023/10/24 11:26:00;;;;;;;;;;;14.40;98.50;;;;;;5106288;28;20338;-70
2023/10/24 11:28:26;;;;;;;;;;;14.40;98.50;;;;;;5102385;28;19912;-70
2023/10/24 11:30:52;;;;;;;;;;;14.40;98.50;;;;;;5106338;28;19912;-70
2023/10/24 11:33:18;;;;;;;;;;;14.40;98.50;;;;;;5105425;28;19911;-70
2023/10/24 11:35:44;;;;;;;;;;;14.50;98.50;;;;;;5107141;28;19908;-70
2023/10/24 11:38:10;;;;;;;;;;;14.40;98.60;;;;;;5106177;28;19939;-70
2023/10/24 11:40:35;;;;;;;;;;;14.40;98.60;;;;;;5114460;27;20357;-70
2023/10/24 11:43:07;;;;;;;;;;;14.50;98.60;;;;;;5109788;27;19919;-70
2023/10/24 11:45:34;;;;;;;;;;;14.40;98.70;;;;;;5108201;28;20299;-70
2023/10/24 11:47:59;;;;;;;;;;;14.50;98.60;;;;;;5115854;27;20002;-70
2023/10/24 11:50:44;;;;;;;;;;;14.40;98.60;;;;;;5108244;28;20011;-70
2023/10/24 11:53:19;;;;;;;;;;;14.50;98.60;;;;;;5116089;27;20352;-70
2023/10/24 11:55:46;;;;;;;;;;;14.50;98.60;;;;;;5107363;28;20380;-70
2023/10/24 11:58:11;;;;;;;;;;;14.50;98.50;;;;;;5107736;28;19927;-70
2023/10/24 12:00:40;;;;;;;;;;;14.60;98.50;;;;;;5107507;28;19920;-70
2023/10/24 12:03:06;;;;;;;;;;;14.50;98.50;;;;;;5113812;28;19915;-70
2023/10/24 12:05:32;;;;;;;;;;;14.50;98.40;;;;;;5110026;27;19919;-70
2023/10/24 12:07:58;;;;;;;;;;;14.60;98.60;;;;;;5106836;28;19923;-70
2023/10/24 12:10:23;;;;;;;;;;;14.60;98.60;;;;;;5106167;28;19912;-70
2023/10/24 12:12:49;;;;;;;;;;;14.60;98.60;;;;;;5107243;28;19918;-70
2023/10/24 12:15:15;;;;;;;;;;;14.60;98.50;;;;;;5106911;28;19989;-71
2023/10/24 12:17:47;;;;;;;;;;;14.60;98.60;;;;;;5104516;28;19939;-70
2023/10/24 12:20:12;;;;;;;;;;;14.60;98.60;;;;;;5106817;28;19933;-70
2023/10/24 12:22:38;;;;;;;;;;;14.60;98.60;;;;;;5107376;28;19912;-70
2023/10/24 12:25:04;;;;;;;;;;;14.60;98.60;;;;;;5106035;28;19908;-70
2023/10/24 12:27:29;;;;;;;;;;;14.60;98.60;;;;;;5115669;27;19922;-70
2023/10/24 12:29:54;;;;;;;;;;;14.50;98.60;;;;;;5107203;28;19985;-70
2023/10/24 12:32:20;;;;;;;;;;;14.50;98.60;;;;;;5107519;28;19912;-70
2023/10/24 12:34:45;;;;;;;;;;;14.50;98.70;;;;;;5111376;28;19972;-70
2023/10/24 12:37:11;;;;;;;;;;;14.50;98.70;;;;;;5107135;28;19912;-70
2023/10/24 12:39:36;;;;;;;;;;;14.50;98.70;;;;;;5114364;27;19923;-70
2023/10/24 12:42:02;;;;;;;;;;;14.40;98.90;;;;;;5111187;27;19911;-70
2023/10/24 12:44:27;;;;;;;;;;;14.40;98.80;;;;;;5112345;28;20003;-70
2023/10/24 12:46:53;;;;;;;;;;;14.40;98.90;;;;;;5112060;28;19915;-70
2023/10/24 12:49:19;;;;;;;;;;;14.30;98.90;;;;;;5110771;28;20014;-70
2023/10/24 12:51:44;;;;;;;;;;;14.30;99.00;;;;;;5110601;28;19919;-70
2023/10/24 12:54:10;;;;;;;;;;;14.30;99.00;;;;;;5111174;28;19912;-70
2023/10/24 12:56:35;;;;;;;;;;;14.30;99.00;;;;;;5112161;28;20409;-70
2023/10/24 12:59:01;;;;;;;;;;;14.30;99.10;;;;;;5111591;27;19933;-70
2023/10/24 13:01:29;;;;;;;;;;;14.20;99.20;;;;;;5102001;27;19919;-70
2023/10/24 13:03:54;;;;;;;;;;;14.20;99.20;;;;;;5112632;27;19908;-70
2023/10/24 13:06:22;;;;;;;;;;;14.20;99.30;;;;;;5115010;27;19922;-70
2023/10/24 13:08:47;;;;;;;;;;;14.20;99.40;;;;;;5111718;28;20725;-70
2023/10/24 13:11:13;;;;;;;;;;;14.10;99.40;;;;;;5111264;28;19923;-70
2023/10/24 13:13:38;;;;;;;;;;;14.10;99.40;;;;;;5111310;28;19919;-70
2023/10/24 13:16:04;;;;;;;;;;;14.10;99.40;;;;;;5111098;28;19919;-71
2023/10/24 13:18:29;;;;;;;;;;;14.10;99.50;;;;;;5111206;28;19941;-71
2023/10/24 13:20:55;;;;;;;;;;;14.00;99.50;;;;;;5110640;28;19919;-71
2023/10/24 13:23:20;;;;;;;;;;;14.10;99.50;;;;;;5110888;28;19954;-71
2023/10/24 13:25:46;;;;;;;;;;;14.00;99.50;;;;;;5109859;28;19911;-71
2023/10/24 13:28:12;;;;;;;;;;;14.00;99.60;;;;;;5109420;28;20533;-71
2023/10/24 13:30:37;;;;;;;;;;;14.00;99.60;;;;;;5111108;28;19912;-71
2023/10/24 13:33:03;;;;;;;;;;;14.00;99.60;;;;;;5106617;28;20397;-71
2023/10/24 13:35:28;;;;;;;;;;;14.00;99.70;;;;;;5108883;27;19915;-71
2023/10/24 13:37:54;;;;;;;;;;;13.90;99.70;;;;;;5109655;27;19957;-71
2023/10/24 13:40:20;;;;;;;;;;;13.90;99.70;;;;;;5110476;28;20354;-71
2023/10/24 13:42:45;;;;;;;;;;;13.90;99.70;;;;;;5110899;28;20264;-71
2023/10/24 13:45:12;;;;;;;;;;;13.90;99.80;;;;;;5112690;27;19912;-71
2023/10/24 13:47:38;;;;;;;;;;;13.90;99.90;;;;;;5109584;27;19912;-71
2023/10/24 13:50:03;;;;;;;;;;;13.90;99.90;;;;;;5107854;28;19960;-71
2023/10/24 13:52:32;;;;;;;;;;;13.80;99.90;;;;;;5118977;27;20542;-71
2023/10/24 13:54:58;;;;;;;;;;;13.80;99.90;;;;;;5108115;28;19912;-71
2023/10/24 13:57:24;;;;;;;;;;;13.80;99.90;;;;;;5100351;28;20352;-71
2023/10/24 13:59:49;;;;;;;;;;;13.80;99.90;;;;;;5110407;28;19919;-71
2023/10/24 14:02:15;;;;;;;;;;;13.70;99.90;;;;;;5106682;27;19915;-71
2023/10/24 14:04:40;;;;;;;;;;;13.80;99.90;;;;;;5115406;27;19980;-71
2023/10/24 14:07:06;;;;;;;;;;;13.80;99.90;;;;;;5107151;28;19915;-71
2023/10/24 14:09:32;;;;;;;;;;;13.80;99.90;;;;;;5109740;28;19918;-71
2023/10/24 14:11:57;;;;;;;;;;;13.80;99.90;;;;;;5109380;28;19911;-71